Flight Track Log - Related Links

Times and Time Zones

All times are in EDT time to prevent confusion due to time zone crossing. See the EGF4174 flight status page for this flight to view local times or setup timezone preferences in your user account.

Time Position Orientation Groundspeed Altitude Reporting Facility
EDT Latitude Longitude Course Direction KTS MPH feet Rate Location/Type
Mon 05:07:50 PM 43.1089 -76.0922 286° West 131 151 1,200  Level Boston Center
Mon 05:08:21 PM 43.1119 -76.0611 82° East 157 181 2,000 2,044 Climbing Boston Center
Mon 05:09:21 PM 43.1550 -76.0806 342° North 234 269 4,300 2,197 Climbing Boston Center
Mon 05:10:00 PM 43.1920 -76.4420 324° Northwest  Level FlightAware Approximate
Mon 05:11:00 PM 43.2087 -76.5609 281° West  Level FlightAware Approximate
Mon 05:11:24 PM 43.1719 -76.2728 277° West 253 291 8,700  Level Cleveland Center
Mon 05:12:00 PM 43.2309 -76.6827 286° West  Level FlightAware Approximate
Mon 05:12:25 PM 43.1903 -76.3769 284° West 265 305 10,600  Level Cleveland Center
Mon 05:13:00 PM 43.2567 -76.8034 286° West  Level FlightAware Approximate
Mon 05:13:25 PM 43.2092 -76.4925 283° West 287 330 12,100  Level Cleveland Center
Mon 05:14:24 PM 43.2258 -76.6139 281° West 317 365 14,000 1,600 Climbing Cleveland Center
Mon 05:15:25 PM 43.2197 -76.7397 266° West 323 372 15,300 1,400 Climbing Cleveland Center
Mon 05:16:24 PM 43.2156 -76.8711 268° West 339 390 16,800 1,350 Climbing Cleveland Center
Mon 05:17:25 PM 43.2069 -76.9914 264° West 355 409 18,000 1,041 Climbing Cleveland Center
Mon 05:18:25 PM 43.2006 -77.1283 266° West 355 409 18,900 1,210 Climbing Cleveland Center
Mon 05:19:24 PM 43.1964 -77.2653 268° West 361 415 20,400 1,450 Climbing Cleveland Center
Mon 05:20:25 PM 43.1897 -77.4025 266° West 367 422 21,800 1,488 Climbing Cleveland Center
Mon 05:21:25 PM 43.1850 -77.5394 267° West 367 422 23,400 1,550 Climbing Cleveland Center
Mon 05:22:25 PM 43.1781 -77.6764 266° West 367 422 24,900 1,563 Climbing Cleveland Center
Mon 05:23:24 PM 43.1711 -77.8133 266° West 367 422 26,500 1,500 Climbing Cleveland Center
Mon 05:24:25 PM 43.1636 -77.9419 265° West 367 422 27,900 1,339 Climbing Cleveland Center
Mon 05:25:25 PM 43.1583 -78.0731 267° West 362 417 29,200 1,250 Climbing Cleveland Center
Mon 05:26:25 PM 43.1506 -78.2014 265° West 351 404 30,400 1,150 Climbing Cleveland Center
Mon 05:27:25 PM 43.1447 -78.3325 267° West 351 404 31,500 800 Climbing Cleveland Center
Mon 05:28:25 PM 43.1392 -78.4664 267° West 351 404 32,000 250 Climbing Cleveland Center
Mon 05:29:25 PM 43.1372 -78.5975 269° West 351 404 32,000  Level Cleveland Center
Mon 05:30:25 PM 43.1353 -78.7256 269° West 351 404 32,000  Level Cleveland Center
Mon 05:31:25 PM 43.1331 -78.8592 269° West 351 404 32,000  Level Cleveland Center
Mon 05:32:35 PM 43.1167 -79.0167 262° West 360 414 32,000  Level Toronto Center
Mon 05:33:35 PM 43.1167 -79.1500 270° West 350 403 32,000  Level Toronto Center
Mon 05:34:35 PM 43.1167 -79.2667 270° West 350 403 32,000  Level Toronto Center
Mon 05:35:35 PM 43.1167 -79.4000 270° West 350 403 32,000  Level Toronto Center
Mon 05:36:35 PM 43.1167 -79.5500 270° West 360 414 32,000  Level Toronto Center
Mon 05:37:35 PM 43.1000 -79.6833 260° West 370 426 32,000  Level Toronto Center
Mon 05:38:35 PM 43.1000 -79.8333 270° West 380 437 32,000  Level Toronto Center
Mon 05:39:35 PM 43.1000 -79.9833 270° West 380 437 32,000  Level Toronto Center
Mon 05:40:35 PM 43.1000 -80.1333 270° West 390 449 32,000  Level Toronto Center
Mon 05:41:35 PM 43.1000 -80.2667 270° West 400 460 32,000  Level Toronto Center
Mon 05:42:35 PM 43.1000 -80.4333 270° West 400 460 32,000  Level Toronto Center
Mon 05:43:35 PM 43.0833 -80.6000 262° West 390 449 32,000  Level Toronto Center
Mon 05:44:35 PM 43.0833 -80.7333 270° West 390 449 32,000  Level Toronto Center
Mon 05:45:35 PM 43.0667 -80.8833 261° West 390 449 32,000  Level Toronto Center
Mon 05:46:35 PM 43.0667 -81.0333 270° West 390 449 32,000  Level Toronto Center
Mon 05:47:35 PM 43.0667 -81.1667 270° West 390 449 32,000  Level Toronto Center
Mon 05:48:35 PM 43.0667 -81.3167 270° West 390 449 32,000  Level Toronto Center
Mon 05:49:35 PM 43.0500 -81.4500 260° West 390 449 32,000  Level Toronto Center
Mon 05:50:35 PM 43.0500 -81.6167 270° West 390 449 32,000  Level Toronto Center
Mon 05:51:35 PM 43.0500 -81.7833 270° West 390 449 32,000  Level Toronto Center
Mon 05:52:35 PM 43.0333 -81.9167 260° West 400 460 32,000  Level Toronto Center
Mon 05:53:35 PM 43.0333 -82.0667 270° West 400 460 32,000  Level Toronto Center
Mon 05:54:35 PM 43.0333 -82.2167 270° West 390 449 32,000  Level Toronto Center
Mon 05:55:35 PM 43.0167 -82.3667 261° West 390 449 32,000  Level Toronto Center
Mon 05:56:35 PM 43.0167 -82.5333 270° West 390 449 32,000  Level Toronto Center
Mon 05:57:37 PM 43.0208 -82.6647 273° West 397 457 32,000  Level Cleveland Center
Mon 05:58:37 PM 43.0117 -82.8119 265° West 397 457 32,000 -350 Level Cleveland Center
Mon 05:59:37 PM 43.0025 -82.9594 265° West 392 451 31,300 -850 Descending Cleveland Center
Mon 06:00:37 PM 42.9933 -83.1067 265° West 392 451 30,300 -950 Descending Cleveland Center
Mon 06:01:37 PM 42.9836 -83.2594 265° West 402 463 29,400 -950 Descending Cleveland Center
Mon 06:02:37 PM 42.9717 -83.4094 264° West 402 463 28,400 -700 Descending Cleveland Center
Mon 06:03:37 PM 42.9592 -83.5678 264° West 409 471 28,000 -200 Descending Cleveland Center
Mon 06:04:37 PM 42.9489 -83.7206 265° West 414 476 28,000  Level Cleveland Center
Mon 06:05:37 PM 42.9383 -83.8758 265° West 414 476 28,000  Level Cleveland Center
Mon 06:06:37 PM 42.9256 -84.0256 263° West 414 476 28,000  Level Cleveland Center
Mon 06:07:37 PM 42.9167 -84.1811 266° West 414 476 28,000  Level Cleveland Center
Mon 06:08:37 PM 42.9033 -84.3419 264° West 408 470 28,000  Level Cleveland Center
Mon 06:09:03 PM 42.8983 -84.3964 263° West 401 461 28,000  Level Chicago Center
Mon 06:10:05 PM 42.8869 -84.5450 264° West 398 458 28,000  Level Chicago Center
Mon 06:11:07 PM 42.8733 -84.6944 263° West 398 458 28,000  Level Chicago Center
Mon 06:12:09 PM 42.8544 -84.8739 262° West 399 459 28,000  Level Chicago Center
Mon 06:13:11 PM 42.8381 -85.0236 262° West 400 460 28,000  Level Chicago Center
Mon 06:14:13 PM 42.8222 -85.1742 262° West 404 465 28,000  Level Chicago Center
Mon 06:15:15 PM 42.8058 -85.3258 262° West 404 465 28,000 -339 Level Chicago Center
Mon 06:16:17 PM 42.7886 -85.4811 261° West 411 473 27,300 -1,056 Descending Chicago Center
Mon 06:17:20 PM 42.7636 -85.6303 257° West 405 466 25,800 -1,440 Descending Chicago Center
Mon 06:18:22 PM 42.7350 -85.7836 256° West 413 475 24,300 -1,645 Descending Chicago Center
Mon 06:19:24 PM 42.7025 -85.9661 256° West 412 474 22,400 -1,645 Descending Chicago Center
Mon 06:20:26 PM 42.6747 -86.1144 256° West 405 466 20,900 -1,161 Descending Chicago Center
Mon 06:21:28 PM 42.6475 -86.2603 256° West 398 458 20,000 -435 Descending Chicago Center
Mon 06:22:30 PM 42.6208 -86.4028 256° West 390 449 20,000 -192 Level Chicago Center
Mon 06:23:33 PM 42.5925 -86.5494 255° West 398 458 19,600 -1,584 Descending Chicago Center
Mon 06:24:35 PM 42.5669 -86.6903 256° West 387 445 16,700 -2,855 Descending Chicago Center
Mon 06:25:37 PM 42.5364 -86.8206 252° West 368 423 13,700 -2,806 Descending Chicago Center
Mon 06:26:39 PM 42.4944 -86.9689 249° West 355 409 10,900 -1,839 Descending Chicago Center
Mon 06:27:41 PM 42.4614 -87.0856 249° West 335 386 9,900 -677 Descending Chicago Center
Mon 06:28:43 PM 42.4364 -87.1817 251° West 275 316 9,500 -726 Descending Chicago Center
Mon 06:29:45 PM 42.4089 -87.2722 248° West 262 302 8,400 -1,065 Descending Chicago Center
Mon 06:30:47 PM 42.3842 -87.3669 251° West 266 306 7,300 -726 Descending Chicago Center
Mon 06:31:49 PM 42.3567 -87.4675 250° West 262 302 6,900 -145 Descending Chicago Center
Mon 06:32:51 PM 42.3175 -87.5417 234° Southwest 260 299 7,000  Climbing Chicago Center
Mon 06:33:53 PM 42.2550 -87.6097 219° Southwest 239 275 6,900 -339 Descending Chicago Center
Mon 06:34:55 PM 42.2097 -87.6617 220° Southwest 219 252 6,300 -919 Descending Chicago Center
Mon 06:35:57 PM 42.1636 -87.7133 220° Southwest 218 251 5,000 -1,316 Descending Chicago Center
Mon 06:36:49 PM 42.1167 -87.7667 220° Southwest 216 249 3,800 -1,385 Descending Chicago TRACON

Login

Don't have an account? Register now (free) for customized features, flight alerts, and more!